Time;durP1;ratioP1;P1;durP2;ratioP2;P2;SDS_P1;SDS_P2;PMS_P1;PMS_P2;Temp;Humidity;BMP_temperature;BMP_pressure;BME280_temperature;BME280_humidity;BME280_pressure;Samples;Min_cycle;Max_cycle;Signal;HPM_P1;HPM_P2
2022/09/23 00:00:10;;;;;;;4.33;3.93;;;22.70;51.10;;;;;;5111465;28;20427;-83
2022/09/23 00:02:55;;;;;;;5.93;4.10;;;22.70;51.20;;;;;;5110122;28;20471;-83
2022/09/23 00:05:41;;;;;;;;;;;;;;;;;;;;;
2022/09/23 00:08:24;;;;;;;5.10;3.90;;;22.70;51.10;;;;;;5121098;28;20478;-82
2022/09/23 00:11:24;;;;;;;5.43;4.00;;;22.80;51.20;;;;;;5114758;28;20507;-83
2022/09/23 00:14:03;;;;;;;6.13;4.07;;;22.70;51.20;;;;;;5098990;28;20522;-82
2022/09/23 00:16:40;;;;;;;6.10;3.87;;;22.70;51.20;;;;;;5124059;27;20431;-82
2022/09/23 00:19:20;;;;;;;5.97;4.23;;;22.70;51.20;;;;;;5105047;28;20466;-83
2022/09/23 00:22:07;;;;;;;6.00;4.07;;;22.70;51.20;;;;;;5106480;27;20413;-82
2022/09/23 00:24:55;;;;;;;7.50;4.17;;;22.80;51.20;;;;;;5105703;27;20481;-83
2022/09/23 00:27:46;;;;;;;6.80;4.00;;;22.70;51.20;;;;;;5107943;28;20689;-83
2022/09/23 00:30:24;;;;;;;4.20;3.67;;;22.70;51.20;;;;;;5102086;28;20453;-83
2022/09/23 00:33:08;;;;;;;5.90;4.20;;;22.70;51.20;;;;;;5107929;28;20866;-84
2022/09/23 00:35:44;;;;;;;6.20;4.50;;;22.70;51.20;;;;;;5105332;28;20423;-83
2022/09/23 00:38:28;;;;;;;5.53;3.83;;;22.70;51.20;;;;;;5102675;28;20423;-84
2022/09/23 00:41:14;;;;;;;3.80;3.30;;;22.70;51.20;;;;;;5105264;28;20418;-83
2022/09/23 00:44:03;;;;;;;5.37;4.20;;;22.70;51.20;;;;;;5105450;27;20426;-83
2022/09/23 00:46:43;;;;;;;6.30;4.10;;;22.70;51.20;;;;;;5122822;28;20443;-82
2022/09/23 00:49:29;;;;;;;5.20;4.03;;;22.70;51.20;;;;;;5127589;28;20437;-83
2022/09/23 00:52:15;;;;;;;4.80;3.60;;;22.70;51.20;;;;;;5109480;28;20411;-83
2022/09/23 00:55:07;;;;;;;6.30;3.57;;;22.70;51.20;;;;;;5112800;28;20512;-83
2022/09/23 00:57:46;;;;;;;4.97;3.67;;;22.70;51.20;;;;;;5106414;28;20427;-83
2022/09/23 01:00:35;;;;;;;5.43;3.60;;;22.70;51.20;;;;;;5118663;28;20468;-84
2022/09/23 01:03:17;;;;;;;6.70;4.57;;;22.70;51.20;;;;;;5106107;28;20482;-83
2022/09/23 01:06:00;;;;;;;4.27;3.80;;;22.70;51.20;;;;;;5097478;28;20466;-83
2022/09/23 01:08:33;;;;;;;5.67;3.70;;;22.70;51.20;;;;;;5101518;28;20466;-83
2022/09/23 01:11:28;;;;;;;5.37;3.70;;;22.70;51.20;;;;;;5100661;28;20555;-83
2022/09/23 01:14:18;;;;;;;5.73;3.93;;;22.70;51.20;;;;;;5102963;28;20422;-83
2022/09/23 01:17:11;;;;;;;3.80;3.43;;;22.70;51.20;;;;;;5101886;28;20530;-83
2022/09/23 01:20:18;;;;;;;5.30;4.03;;;22.70;51.20;;;;;;5104770;28;20419;-83
2022/09/23 01:22:58;;;;;;;3.90;3.23;;;22.70;51.20;;;;;;5101964;28;20431;-84
2022/09/23 01:25:46;;;;;;;6.90;3.57;;;22.70;51.20;;;;;;5097815;28;20459;-83
2022/09/23 01:28:55;;;;;;;4.60;3.33;;;22.70;51.20;;;;;;5109239;28;20477;-83
2022/09/23 01:31:42;;;;;;;6.13;3.30;;;22.70;51.20;;;;;;5118493;28;20470;-83
2022/09/23 01:34:45;;;;;;;6.20;3.40;;;22.60;51.20;;;;;;5122108;28;20423;-83
2022/09/23 01:37:20;;;;;;;5.10;3.40;;;22.70;51.20;;;;;;5102599;28;20422;-83
2022/09/23 01:39:53;;;;;;;4.60;3.73;;;22.60;51.70;;;;;;5121888;28;20410;-82
2022/09/23 01:42:48;;;;;;;4.27;3.17;;;22.70;51.20;;;;;;5099977;28;20837;-82
2022/09/23 01:45:45;;;;;;;7.63;3.90;;;22.60;51.20;;;;;;5104931;28;20903;-82
2022/09/23 01:48:38;;;;;;;3.87;2.80;;;22.60;51.20;;;;;;5098708;28;20432;-83
2022/09/23 01:51:31;;;;;;;5.00;4.17;;;22.70;51.30;;;;;;5102526;28;20440;-82
2022/09/23 01:54:26;;;;;;;4.73;3.77;;;22.60;51.20;;;;;;5108202;28;20434;-83
2022/09/23 01:57:37;;;;;;;5.00;3.67;;;22.60;51.20;;;;;;5091663;28;20426;-85
2022/09/23 02:00:25;;;;;;;5.83;3.93;;;22.70;51.30;;;;;;5083070;28;20416;-84
2022/09/23 02:03:03;;;;;;;5.30;4.03;;;22.60;51.20;;;;;;5085953;28;20850;-84
2022/09/23 02:05:55;;;;;;;7.50;3.33;;;22.60;51.20;;;;;;5087875;28;20565;-84
2022/09/23 02:15:24;;;;;;;4.97;3.70;;;22.60;51.20;;;;;;5066364;28;20390;-82
2022/09/23 02:18:05;;;;;;;5.50;3.33;;;22.60;51.20;;;;;;5047868;28;20506;-84
2022/09/23 02:21:02;;;;;;;4.87;3.50;;;22.60;51.20;;;;;;5067619;28;20445;-82
2022/09/23 02:23:49;;;;;;;4.80;4.30;;;22.60;51.20;;;;;;5038325;28;20930;-83
2022/09/23 02:26:26;;;;;;;4.90;3.33;;;22.60;51.20;;;;;;5049770;28;20449;-83
2022/09/23 02:29:42;;;;;;;4.40;3.47;;;22.60;51.20;;;;;;5050905;28;20429;-83
2022/09/23 02:32:41;;;;;;;5.63;3.50;;;22.60;51.20;;;;;;5069123;28;20436;-83
2022/09/23 02:35:24;;;;;;;4.77;3.27;;;22.60;51.20;;;;;;5046941;28;20445;-83
2022/09/23 02:38:19;;;;;;;6.43;3.33;;;22.60;51.20;;;;;;5068217;28;20440;-84
2022/09/23 02:41:21;;;;;;;4.77;3.43;;;22.60;51.20;;;;;;5067538;28;20463;-83
2022/09/23 02:44:16;;;;;;;3.90;3.07;;;22.60;51.20;;;;;;5067178;28;20730;-83
2022/09/23 02:46:56;;;;;;;4.00;3.13;;;22.60;51.20;;;;;;5111848;28;20423;-83
2022/09/23 02:49:36;;;;;;;4.47;3.10;;;22.60;51.20;;;;;;5112567;28;20414;-83
2022/09/23 02:52:10;;;;;;;5.07;3.20;;;22.60;51.20;;;;;;5112262;28;20462;-83
2022/09/23 02:54:45;;;;;;;4.23;3.03;;;22.60;51.20;;;;;;5111861;28;20425;-83
2022/09/23 02:57:16;;;;;;;4.10;3.20;;;22.60;51.20;;;;;;5111624;28;20433;-84
2022/09/23 02:59:46;;;;;;;3.73;3.27;;;22.60;51.20;;;;;;5112739;28;20510;-84
2022/09/23 03:02:54;;;;;;;4.87;2.70;;;22.60;51.20;;;;;;5112396;28;20520;-84
2022/09/23 03:05:29;;;;;;;5.70;3.73;;;22.60;51.20;;;;;;5111770;28;20453;-84
2022/09/23 03:08:28;;;;;;;4.83;3.07;;;22.60;51.20;;;;;;5112657;28;20418;-84
2022/09/23 03:11:05;;;;;;;4.00;3.20;;;22.60;51.20;;;;;;5112072;28;20743;-83
2022/09/23 03:14:07;;;;;;;4.47;3.40;;;22.60;51.20;;;;;;5112058;28;20422;-83
2022/09/23 03:16:55;;;;;;;4.07;2.57;;;22.60;51.20;;;;;;5111788;28;20466;-84
2022/09/23 03:19:41;;;;;;;4.13;3.10;;;22.60;51.20;;;;;;5111876;28;20411;-84
2022/09/23 03:22:49;;;;;;;4.77;3.23;;;22.60;51.20;;;;;;5111586;28;20410;-84
2022/09/23 03:25:30;;;;;;;5.33;3.47;;;22.60;51.20;;;;;;5099336;28;20477;-83
2022/09/23 03:28:00;;;;;;;3.60;3.30;;;22.50;51.10;;;;;;5112503;28;20425;-83
2022/09/23 03:30:37;;;;;;;4.20;3.07;;;22.50;51.10;;;;;;5112067;28;20428;-83
2022/09/23 03:33:08;;;;;;;3.90;3.00;;;22.60;51.20;;;;;;5111875;28;20417;-83
2022/09/23 03:38:46;;;;;;;4.33;3.13;;;22.50;51.10;;;;;;5130713;28;20398;-83
2022/09/23 03:41:22;;;;;;;5.47;3.80;;;22.50;51.20;;;;;;5112347;28;20422;-83
2022/09/23 03:43:53;;;;;;;4.00;3.40;;;22.50;51.20;;;;;;5111674;28;20421;-83
2022/09/23 03:46:26;;;;;;;4.27;3.87;;;22.50;51.20;;;;;;5111466;28;20427;-83
2022/09/23 03:48:58;;;;;;;3.47;3.17;;;22.50;51.20;;;;;;5112564;28;20422;-84
2022/09/23 03:51:30;;;;;;;5.47;3.00;;;22.50;51.20;;;;;;5110068;28;20442;-84
2022/09/23 03:54:10;;;;;;;4.43;3.27;;;22.50;51.30;;;;;;5111915;28;20410;-84
2022/09/23 03:56:40;;;;;;;4.10;3.40;;;22.50;51.30;;;;;;5111329;28;20407;-84
2022/09/23 03:59:14;;;;;;;3.40;2.87;;;22.40;51.20;;;;;;5111009;28;20430;-84
2022/09/23 04:01:50;;;;;;;3.37;2.40;;;22.40;51.20;;;;;;5111396;28;20445;-83
2022/09/23 04:04:23;;;;;;;5.97;3.40;;;22.40;51.20;;;;;;5112072;28;20529;-83
2022/09/23 04:07:08;;;;;;;4.00;3.07;;;22.40;51.20;;;;;;5093085;28;20454;-83
2022/09/23 04:09:37;;;;;;;3.53;2.67;;;22.50;51.90;;;;;;5113652;28;20415;-83
2022/09/23 04:12:12;;;;;;;3.83;3.00;;;22.40;51.30;;;;;;5112584;28;20399;-84
2022/09/23 04:14:47;;;;;;;3.20;2.77;;;22.40;51.30;;;;;;5095399;28;20438;-84
2022/09/23 04:17:26;;;;;;;3.90;2.70;;;22.40;51.30;;;;;;5112271;28;20437;-84
2022/09/23 04:20:42;;;;;;;3.13;2.73;;;22.40;51.30;;;;;;5112483;28;20430;-83
2022/09/23 04:23:24;;;;;;;5.40;3.40;;;22.40;51.30;;;;;;5129973;28;20407;-83
2022/09/23 04:26:03;;;;;;;2.80;2.37;;;22.40;51.40;;;;;;5113178;28;20450;-83
2022/09/23 04:28:38;;;;;;;3.77;2.67;;;22.40;51.40;;;;;;5112153;28;20403;-83
2022/09/23 04:31:58;;;;;;;3.63;2.60;;;22.40;51.30;;;;;;5130269;28;20422;-83
2022/09/23 04:34:30;;;;;;;4.93;2.90;;;22.40;51.30;;;;;;5111133;28;20419;-83
2022/09/23 04:37:02;;;;;;;3.80;2.87;;;22.40;51.30;;;;;;5111988;28;20444;-83
2022/09/23 04:39:43;;;;;;;4.20;3.13;;;22.40;51.30;;;;;;5130373;28;20382;-83
2022/09/23 04:42:14;;;;;;;4.40;2.70;;;22.40;51.30;;;;;;5112323;28;20414;-83
2022/09/23 04:44:54;;;;;;;3.57;2.73;;;22.40;51.30;;;;;;5111525;28;20806;-84
2022/09/23 04:47:37;;;;;;;;;;;;;;;;;;;;;
2022/09/23 04:50:17;;;;;;;3.43;3.00;;;22.40;51.20;;;;;;5130489;28;20433;-83
2022/09/23 04:52:50;;;;;;;4.53;3.13;;;22.40;51.20;;;;;;5130306;28;20455;-83
2022/09/23 04:55:36;;;;;;;2.90;2.50;;;22.50;51.30;;;;;;5111158;28;20419;-83
2022/09/23 04:58:08;;;;;;;3.80;2.63;;;22.50;51.30;;;;;;5111769;28;20906;-83
2022/09/23 05:00:40;;;;;;;4.07;2.90;;;22.50;51.30;;;;;;5111687;28;20422;-84
2022/09/23 05:03:10;;;;;;;3.13;2.40;;;22.50;51.50;;;;;;5111034;28;20419;-84
2022/09/23 05:05:45;;;;;;;3.30;2.90;;;22.50;51.30;;;;;;5110931;28;20454;-83
2022/09/23 05:08:23;;;;;;;4.20;2.90;;;22.50;51.30;;;;;;5111776;28;20406;-83
2022/09/23 05:10:59;;;;;;;4.10;2.30;;;22.50;51.30;;;;;;5112490;28;20452;-83
2022/09/23 05:13:31;;;;;;;4.00;2.93;;;22.50;51.30;;;;;;5112742;28;20418;-83
2022/09/23 05:16:10;;;;;;;4.50;2.43;;;22.50;51.30;;;;;;5130729;28;20398;-83
2022/09/23 05:18:43;;;;;;;3.50;2.43;;;22.50;51.20;;;;;;5111825;28;20442;-82
2022/09/23 05:21:18;;;;;;;4.90;3.17;;;22.50;51.20;;;;;;5104758;28;20442;-83
2022/09/23 05:24:03;;;;;;;3.17;2.60;;;22.60;51.30;;;;;;5110013;28;20441;-83
2022/09/23 05:26:31;;;;;;;4.03;3.43;;;22.60;51.30;;;;;;5078208;28;20446;-83
2022/09/23 05:29:04;;;;;;;3.57;2.90;;;22.50;51.80;;;;;;5111333;28;20420;-83
2022/09/23 05:31:33;;;;;;;4.20;2.93;;;22.60;51.30;;;;;;5107452;28;20404;-83
2022/09/23 05:34:12;;;;;;;3.40;2.10;;;22.50;51.20;;;;;;5104029;28;20824;-83
2022/09/23 05:36:53;;;;;;;6.93;2.80;;;22.60;51.30;;;;;;5112449;28;20413;-83
2022/09/23 05:39:30;;;;;;;2.80;2.50;;;22.60;51.30;;;;;;5119107;28;20410;-83
2022/09/23 05:42:03;;;;;;;4.77;3.10;;;22.60;51.30;;;;;;5124663;28;20494;-83
2022/09/23 05:44:43;;;;;;;3.37;2.30;;;22.60;51.20;;;;;;5100249;28;20456;-83
2022/09/23 05:50:14;;;;;;;3.40;2.20;;;22.60;51.30;;;;;;5081996;28;20890;-83
2022/09/23 05:52:49;;;;;;;3.40;2.57;;;22.60;51.20;;;;;;5109514;28;20637;-82
2022/09/23 05:55:25;;;;;;;2.70;2.20;;;22.60;51.20;;;;;;5104350;28;20459;-83
2022/09/23 06:04:54;;;;;;;3.30;2.40;;;22.60;51.20;;;;;;5041547;28;20470;-83
2022/09/23 06:07:43;;;;;;;4.13;2.93;;;22.50;51.20;;;;;;5033819;28;20406;-84
2022/09/23 06:10:21;;;;;;;3.70;2.23;;;22.60;51.30;;;;;;5029276;28;20469;-84
2022/09/23 06:12:59;;;;;;;6.70;2.57;;;22.60;51.30;;;;;;5051106;28;20413;-83
2022/09/23 06:15:35;;;;;;;4.47;3.07;;;22.60;51.30;;;;;;5010231;28;20414;-83
2022/09/23 06:18:07;;;;;;;3.07;2.37;;;22.60;51.30;;;;;;5034555;28;20422;-83
2022/09/23 06:20:46;;;;;;;2.60;2.40;;;22.60;51.30;;;;;;5025392;28;20447;-83
2022/09/23 06:23:13;;;;;;;3.03;2.43;;;22.60;51.30;;;;;;5033356;28;20418;-82
2022/09/23 06:26:09;;;;;;;3.33;2.30;;;22.60;51.30;;;;;;5035485;28;20473;-82
2022/09/23 06:28:39;;;;;;;3.47;2.70;;;22.60;51.20;;;;;;5035174;28;20413;-83
2022/09/23 06:31:12;;;;;;;3.33;2.47;;;22.60;51.20;;;;;;5037370;28;20418;-83
2022/09/23 06:33:42;;;;;;;3.17;2.20;;;22.60;51.30;;;;;;5037139;28;20417;-83
2022/09/23 06:36:10;;;;;;;3.20;2.47;;;22.60;51.30;;;;;;5041229;28;20414;-83
2022/09/23 06:38:48;;;;;;;3.00;2.33;;;22.60;51.20;;;;;;5099543;28;20391;-84
2022/09/23 06:41:27;;;;;;;3.27;2.57;;;22.60;51.20;;;;;;5115764;28;20391;-82
2022/09/23 06:44:00;;;;;;;5.10;2.60;;;22.60;51.20;;;;;;5096235;28;20488;-82
2022/09/23 06:46:45;;;;;;;3.30;2.30;;;22.60;51.20;;;;;;5081268;28;20783;-84
2022/09/23 06:49:21;;;;;;;3.03;2.27;;;22.70;51.30;;;;;;5098297;28;20400;-83
2022/09/23 06:51:54;;;;;;;3.07;2.57;;;22.60;51.20;;;;;;5113247;28;20416;-83
2022/09/23 06:54:29;;;;;;;3.00;2.30;;;22.60;51.20;;;;;;5094817;28;20931;-83
2022/09/23 06:57:08;;;;;;;4.13;2.30;;;22.70;51.30;;;;;;5095610;28;20540;-83
2022/09/23 07:03:14;;;;;;;3.37;1.97;;;22.60;51.10;;;;;;5112458;28;20394;-83
2022/09/23 07:06:17;;;;;;;2.73;2.30;;;22.70;51.30;;;;;;5094139;28;20462;-83
2022/09/23 07:08:53;;;;;;;3.60;2.30;;;22.70;51.20;;;;;;5029707;28;20454;-83
2022/09/23 07:11:31;;;;;;;2.80;2.27;;;22.60;51.20;;;;;;5092823;28;20408;-84
2022/09/23 07:17:31;;;;;;;3.43;2.70;;;22.70;51.20;;;;;;5110613;28;20387;-84
2022/09/23 07:20:07;;;;;;;2.70;2.50;;;22.70;51.30;;;;;;5093785;28;20509;-84
2022/09/23 07:22:34;;;;;;;3.83;2.30;;;22.70;51.30;;;;;;5077621;28;20407;-84
2022/09/23 07:25:14;;;;;;;2.90;2.30;;;22.70;51.20;;;;;;5094774;28;20955;-83
2022/09/23 07:31:44;;;;;;;3.27;2.33;;;22.70;51.20;;;;;;5111509;28;20405;-84
2022/09/23 07:34:18;;;;;;;4.47;2.23;;;22.70;51.20;;;;;;5094574;28;20412;-83
2022/09/23 07:36:51;;;;;;;4.83;2.57;;;22.70;51.20;;;;;;5078015;28;20510;-84
2022/09/23 07:39:26;;;;;;;2.27;2.00;;;22.70;51.30;;;;;;5095574;28;20423;-84
2022/09/23 07:42:04;;;;;;;2.63;2.43;;;22.70;51.20;;;;;;5112235;28;20414;-84
2022/09/23 07:44:40;;;;;;;3.03;2.20;;;22.70;51.20;;;;;;5089898;28;20457;-84
2022/09/23 07:47:10;;;;;;;2.90;2.20;;;22.80;51.30;;;;;;5091963;28;20437;-84
2022/09/23 07:49:43;;;;;;;2.80;2.50;;;22.70;51.20;;;;;;5092498;28;20412;-84
2022/09/23 07:52:35;;;;;;;2.80;2.10;;;22.70;51.20;;;;;;5110519;28;20399;-84
2022/09/23 07:55:15;;;;;;;3.10;2.20;;;22.80;51.30;;;;;;5089441;28;20404;-84
2022/09/23 07:57:53;;;;;;;2.93;2.60;;;22.80;51.20;;;;;;5109600;28;20411;-84
2022/09/23 08:00:21;;;;;;;2.70;2.27;;;22.80;51.30;;;;;;5109775;28;20403;-84
2022/09/23 08:03:04;;;;;;;2.47;2.27;;;22.70;51.20;;;;;;5091430;28;20422;-84
2022/09/23 08:05:58;;;;;;;2.03;1.70;;;22.80;51.20;;;;;;5108543;28;20439;-84
2022/09/23 08:09:02;;;;;;;;;;;;;;;;;;;;;
2022/09/23 08:15:03;;;;;;;3.07;2.10;;;22.80;51.20;;;;;;5108461;28;20383;-84
2022/09/23 08:17:34;;;;;;;2.50;1.83;;;22.80;51.30;;;;;;5090735;28;20415;-84
2022/09/23 08:20:06;;;;;;;4.93;2.40;;;22.80;51.30;;;;;;5091348;28;20468;-84
2022/09/23 08:22:55;;;;;;;2.43;1.90;;;22.80;51.30;;;;;;5090816;28;20416;-84
2022/09/23 08:25:24;;;;;;;3.33;2.17;;;22.80;51.30;;;;;;5090148;28;20480;-84
2022/09/23 08:28:11;;;;;;;2.80;1.87;;;22.80;51.30;;;;;;5090029;28;20400;-83
2022/09/23 08:30:47;;;;;;;2.77;2.07;;;22.80;51.30;;;;;;5090430;28;20408;-84
2022/09/23 08:40:08;;;;;;;3.67;2.13;;;22.90;51.30;;;;;;5007221;28;20419;-84
2022/09/23 08:42:49;;;;;;;2.50;1.80;;;22.90;51.40;;;;;;5006694;28;20419;-84
2022/09/23 08:45:24;;;;;;;2.90;2.27;;;22.90;51.40;;;;;;4990945;28;20621;-84
2022/09/23 08:48:10;;;;;;;2.97;2.10;;;22.90;51.40;;;;;;4991319;28;20836;-84
2022/09/23 08:50:49;;;;;;;2.10;1.70;;;22.90;51.30;;;;;;5007167;28;20411;-84
2022/09/23 08:53:25;;;;;;;2.07;1.67;;;22.90;51.30;;;;;;4990017;28;20712;-84
2022/09/23 08:55:57;;;;;;;2.47;2.03;;;22.90;51.30;;;;;;4990865;28;20420;-84
2022/09/23 08:58:48;;;;;;;2.30;1.83;;;22.90;51.40;;;;;;4990706;28;20499;-84
2022/09/23 09:01:25;;;;;;;2.27;1.90;;;22.90;51.30;;;;;;4990933;28;20416;-85
2022/09/23 09:03:58;;;;;;;2.43;1.73;;;22.90;51.30;;;;;;4989946;28;20412;-84
2022/09/23 09:06:47;;;;;;;2.30;2.10;;;22.90;51.30;;;;;;4990941;28;20504;-84
2022/09/23 09:09:41;;;;;;;2.67;1.60;;;23.00;51.40;;;;;;4990334;28;20424;-84
2022/09/23 09:12:32;;;;;;;;;;;;;;;;;;;;;
2022/09/23 09:15:26;;;;;;;2.70;1.93;;;23.00;51.30;;;;;;5128110;28;20883;-84
2022/09/23 09:18:18;;;;;;;2.87;2.07;;;23.00;51.30;;;;;;5110544;28;20414;-84
2022/09/23 09:21:33;;;;;;;3.27;2.20;;;23.00;51.30;;;;;;5110123;28;20415;-84
2022/09/23 09:27:25;;;;;;;1.97;1.70;;;23.00;51.40;;;;;;5062003;28;20831;-84
2022/09/23 09:30:00;;;;;;;1.70;1.50;;;23.00;51.40;;;;;;5055039;28;20418;-83
2022/09/23 09:33:19;;;;;;;2.47;1.80;;;23.00;51.40;;;;;;5044426;28;20930;-85
2022/09/23 09:36:18;;;;;;;2.80;2.13;;;23.00;51.30;;;;;;4974499;28;20433;-84
2022/09/23 09:38:51;;;;;;;2.07;1.70;;;23.00;51.40;;;;;;5043251;28;20418;-84
2022/09/23 09:41:30;;;;;;;2.20;1.70;;;23.00;51.40;;;;;;5050494;28;20875;-84
2022/09/23 09:44:19;;;;;;;2.53;2.00;;;23.00;51.40;;;;;;5051316;28;20854;-83
2022/09/23 09:47:08;;;;;;;3.10;2.43;;;23.00;51.30;;;;;;5053654;28;20448;-83
2022/09/23 09:50:34;;;;;;;2.87;1.90;;;23.00;51.30;;;;;;5062224;28;20444;-84
2022/09/23 09:53:25;;;;;;;4.27;2.03;;;23.00;51.30;;;;;;5000364;28;20413;-84
2022/09/23 09:56:43;;;;;;;2.43;2.17;;;23.00;51.30;;;;;;5000332;28;20448;-84
2022/09/23 09:59:18;;;;;;;1.67;1.53;;;23.00;51.40;;;;;;4985447;28;20428;-83
2022/09/23 10:01:48;;;;;;;2.10;1.67;;;23.00;51.40;;;;;;5040683;28;20445;-84
2022/09/23 10:04:32;;;;;;;2.20;2.00;;;23.00;51.40;;;;;;5031926;28;20755;-84
2022/09/23 10:07:22;;;;;;;3.13;1.80;;;23.00;51.30;;;;;;5049070;28;20409;-83
2022/09/23 10:09:51;;;;;;;2.13;1.60;;;23.10;51.40;;;;;;5043319;28;20423;-84
2022/09/23 10:12:27;;;;;;;2.00;1.50;;;23.00;51.30;;;;;;5047550;28;20489;-84
2022/09/23 10:16:15;;;;;;;2.47;1.70;;;23.10;51.40;;;;;;5031795;28;20425;-84
2022/09/23 10:18:47;;;;;;;4.33;2.00;;;23.10;51.30;;;;;;5057802;28;20401;-85
2022/09/23 10:21:41;;;;;;;2.23;1.90;;;23.10;51.40;;;;;;5066444;28;20432;-85
2022/09/23 10:24:29;;;;;;;5.80;2.90;;;23.10;51.40;;;;;;5046303;28;20489;-84
2022/09/23 10:27:08;;;;;;;4.43;2.00;;;23.10;51.40;;;;;;5048189;28;20463;-84
2022/09/23 10:30:03;;;;;;;3.30;1.97;;;23.10;51.40;;;;;;5078144;28;20412;-84
2022/09/23 10:32:44;;;;;;;2.87;1.80;;;23.10;51.30;;;;;;5104678;28;20414;-84
2022/09/23 10:35:17;;;;;;;2.03;1.50;;;23.10;51.30;;;;;;5106803;28;20418;-84
2022/09/23 10:48:23;;;;;;;1.80;1.30;;;23.10;51.30;;;;;;5121347;28;20429;-83
2022/09/23 10:50:53;;;;;;;2.03;1.43;;;23.10;51.30;;;;;;5103259;28;20423;-84
2022/09/23 10:53:51;;;;;;;2.60;1.67;;;23.10;51.40;;;;;;5109803;28;20465;-83
2022/09/23 10:56:46;;;;;;;1.80;1.67;;;23.10;51.40;;;;;;5101695;28;20411;-84
2022/09/23 10:59:41;;;;;;;4.03;2.30;;;23.10;51.30;;;;;;5111185;28;20415;-84
2022/09/23 11:02:26;;;;;;;1.97;1.67;;;23.10;51.30;;;;;;5093448;28;20422;-83
2022/09/23 11:09:02;;;;;;;2.47;1.90;;;23.10;51.30;;;;;;5110788;28;20397;-83
2022/09/23 11:11:58;;;;;;;1.87;1.53;;;23.10;51.30;;;;;;5110329;28;20408;-83
2022/09/23 11:14:55;;;;;;;2.07;1.60;;;23.10;51.40;;;;;;5092925;28;20507;-84
2022/09/23 11:17:33;;;;;;;1.90;1.43;;;23.10;51.40;;;;;;5111193;28;20844;-83
2022/09/23 11:21:14;;;;;;;;;;;;;;;;;;;;;
2022/09/23 11:31:23;;;;;;;3.10;2.47;;;23.00;51.30;;;;;;4990062;28;20404;-84
2022/09/23 11:34:25;;;;;;;4.90;2.20;;;23.00;51.20;;;;;;4973514;28;20421;-84
2022/09/23 11:37:18;;;;;;;2.50;2.03;;;22.90;51.20;;;;;;4973360;28;20445;-84
2022/09/23 11:40:22;;;;;;;3.43;2.00;;;23.00;51.30;;;;;;4973370;28;20452;-84
2022/09/23 11:43:51;;;;;;;2.40;1.80;;;23.00;51.30;;;;;;4972508;28;20421;-84
2022/09/23 11:49:52;;;;;;;2.70;1.60;;;22.90;51.30;;;;;;4970195;29;20449;-84
2022/09/23 11:52:40;;;;;;;2.20;1.73;;;22.90;51.30;;;;;;4953342;29;20440;-83
2022/09/23 11:55:49;;;;;;;2.73;2.20;;;22.90;51.40;;;;;;4953831;29;20472;-84
2022/09/23 12:02:10;;;;;;;2.47;1.70;;;22.90;52.00;;;;;;5016400;28;20411;-85
2022/09/23 12:15:07;;;;;;;3.83;3.03;;;22.90;51.40;;;;;;5008547;28;20439;-84
2022/09/23 12:18:12;;;;;;;2.70;2.13;;;22.90;51.40;;;;;;5010236;28;20466;-84
2022/09/23 12:21:13;;;;;;;;;;;;;;;;;;;;;
2022/09/23 12:23:55;;;;;;;3.00;1.83;;;22.90;51.40;;;;;;5026100;28;20408;-84
2022/09/23 12:26:28;;;;;;;4.20;2.37;;;22.90;51.40;;;;;;5011591;28;20439;-84
2022/09/23 12:32:23;;;;;;;3.00;1.77;;;22.90;52.00;;;;;;5028876;28;20430;-83
2022/09/23 12:34:58;;;;;;;2.03;1.60;;;22.90;51.40;;;;;;5001432;28;20423;-84
2022/09/23 12:37:36;;;;;;;2.37;1.57;;;22.90;51.40;;;;;;5027982;28;20396;-85
2022/09/23 12:47:20;;;;;;;2.53;1.97;;;22.90;51.30;;;;;;4990416;28;20440;-84
2022/09/23 12:49:57;;;;;;;2.93;2.03;;;22.90;51.40;;;;;;4974279;28;20433;-84
2022/09/23 12:52:33;;;;;;;2.23;1.80;;;22.90;51.40;;;;;;4954941;28;20433;-83
2022/09/23 12:55:51;;;;;;;2.17;1.77;;;22.90;51.40;;;;;;4990464;28;20420;-84
2022/09/23 13:02:10;;;;;;;2.10;1.80;;;22.90;51.40;;;;;;4879910;29;20417;-84
2022/09/23 13:08:07;;;;;;;2.40;1.83;;;22.90;51.40;;;;;;4839876;29;20518;-84
2022/09/23 13:11:04;;;;;;;2.80;1.47;;;22.80;51.30;;;;;;4826474;29;20427;-83
2022/09/23 13:13:59;;;;;;;2.50;1.63;;;22.80;51.30;;;;;;4825471;29;20429;-82
2022/09/23 13:26:19;;;;;;;2.13;1.70;;;22.80;51.30;;;;;;4933842;29;20562;-83
2022/09/23 13:29:36;;;;;;;1.60;1.40;;;22.80;51.40;;;;;;4917059;29;20415;-83
2022/09/23 13:38:45;;;;;;;2.20;1.73;;;22.80;51.40;;;;;;4931203;29;20918;-83
2022/09/23 13:41:31;;;;;;;2.27;1.80;;;22.80;51.50;;;;;;4931415;29;20519;-82
2022/09/23 13:44:11;;;;;;;2.03;1.67;;;22.80;51.50;;;;;;4940529;28;20460;-83
2022/09/23 13:47:03;;;;;;;3.93;2.00;;;22.80;51.50;;;;;;4989198;28;20857;-84
2022/09/23 13:49:42;;;;;;;2.70;1.53;;;22.80;51.50;;;;;;5011016;28;20412;-84
2022/09/23 13:56:15;;;;;;;1.60;1.43;;;22.90;51.50;;;;;;4983478;28;20469;-84
2022/09/23 13:59:21;;;;;;;1.90;1.20;;;23.00;51.50;;;;;;4969045;29;20433;-84
2022/09/23 14:02:24;;;;;;;2.07;1.60;;;22.90;51.40;;;;;;4975912;28;20432;-84
2022/09/23 14:05:20;;;;;;;2.03;1.40;;;22.90;51.40;;;;;;5008184;28;20533;-84
2022/09/23 14:08:01;;;;;;;2.60;1.73;;;23.00;51.50;;;;;;4940681;28;20462;-84
2022/09/23 14:10:44;;;;;;;1.93;1.67;;;23.00;51.50;;;;;;5007687;28;20877;-84
2022/09/23 14:14:05;;;;;;;2.17;1.60;;;23.00;51.50;;;;;;5022959;28;20431;-83
2022/09/23 14:17:07;;;;;;;2.10;1.57;;;23.00;51.40;;;;;;4988487;28;20417;-84
2022/09/23 14:19:44;;;;;;;2.50;1.20;;;23.00;51.50;;;;;;4985833;28;20424;-85
2022/09/23 14:28:40;;;;;;;1.90;1.70;;;23.10;51.50;;;;;;4998598;28;20706;-83
2022/09/23 14:31:07;;;;;;;2.23;1.73;;;23.00;51.50;;;;;;5055298;28;20886;-83
2022/09/23 14:33:39;;;;;;;2.10;1.57;;;23.00;51.50;;;;;;5055035;28;20410;-83
2022/09/23 14:39:15;;;;;;;1.93;1.67;;;23.10;51.50;;;;;;5071751;28;20494;-84
2022/09/23 14:41:45;;;;;;;1.90;1.37;;;23.10;51.50;;;;;;5072813;28;20410;-85
2022/09/23 14:44:38;;;;;;;;;;;;;;;;;;;;;
2022/09/23 14:47:18;;;;;;;2.40;1.80;;;23.10;51.50;;;;;;5116410;27;20425;-84
2022/09/23 14:50:35;;;;;;;2.00;1.13;;;23.00;51.40;;;;;;5155144;27;20747;-83
2022/09/23 14:53:00;;;;;;;;;;;;;;;;;;;;;
2022/09/23 14:55:32;;;;;;;1.93;1.73;;;23.00;51.40;;;;;;5155544;27;20423;-85
2022/09/23 14:58:34;;;;;;;2.17;1.43;;;23.10;51.50;;;;;;5136817;27;20434;-85
2022/09/23 15:07:31;;;;;;;2.00;1.47;;;23.00;51.40;;;;;;5149731;27;20390;-84
2022/09/23 15:13:46;;;;;;;1.57;1.40;;;23.00;51.50;;;;;;5132466;28;20381;-84
2022/09/23 15:23:06;;;;;;;2.03;1.43;;;23.00;51.50;;;;;;5036472;28;20965;-84
2022/09/23 15:25:39;;;;;;;2.80;1.30;;;23.00;51.60;;;;;;5032931;28;20450;-84
2022/09/23 15:28:14;;;;;;;3.10;2.30;;;23.00;51.50;;;;;;5033791;28;20863;-84
2022/09/23 15:30:55;;;;;;;2.23;1.40;;;23.00;51.50;;;;;;5033201;28;20425;-83
2022/09/23 15:36:59;;;;;;;2.50;1.30;;;23.10;51.50;;;;;;5037525;28;20414;-84
2022/09/23 15:43:17;;;;;;;2.07;1.60;;;23.00;51.50;;;;;;5050050;28;20382;-83
2022/09/23 15:46:01;;;;;;;2.90;1.97;;;23.00;51.50;;;;;;5031159;28;20501;-84
2022/09/23 15:48:49;;;;;;;1.37;1.20;;;23.00;51.50;;;;;;5030788;28;20410;-83
2022/09/23 15:51:18;;;;;;;1.47;1.27;;;23.00;51.50;;;;;;5047510;28;20490;-84
2022/09/23 15:54:00;;;;;;;2.53;1.50;;;23.00;51.50;;;;;;5047229;28;20415;-83
2022/09/23 15:56:40;;;;;;;1.33;1.20;;;23.00;51.50;;;;;;5030389;28;20442;-84
2022/09/23 15:59:14;;;;;;;2.40;1.60;;;23.00;51.50;;;;;;5030464;28;20794;-84
2022/09/23 16:02:06;;;;;;;1.70;1.60;;;23.10;51.50;;;;;;5037795;28;20430;-84
2022/09/23 16:04:51;;;;;;;1.73;1.33;;;23.00;51.40;;;;;;5091396;28;20448;-84
2022/09/23 16:07:18;;;;;;;1.73;1.50;;;23.00;51.40;;;;;;5092401;28;20423;-83
2022/09/23 16:10:05;;;;;;;2.53;1.50;;;23.10;51.50;;;;;;5092206;28;20426;-83
2022/09/23 16:12:50;;;;;;;3.20;1.60;;;23.10;51.50;;;;;;5091857;28;20735;-84
2022/09/23 16:15:24;;;;;;;2.57;1.87;;;23.10;52.10;;;;;;5091781;28;20415;-84
2022/09/23 16:17:50;;;;;;;1.90;1.57;;;23.00;51.40;;;;;;5090202;28;20415;-84
2022/09/23 16:20:28;;;;;;;;;;;;;;;;;;;;;
2022/09/23 16:23:06;;;;;;;2.33;1.43;;;23.00;51.30;;;;;;5047052;28;20465;-85
2022/09/23 16:25:39;;;;;;;1.70;1.50;;;23.00;51.30;;;;;;5029888;28;20466;-85
2022/09/23 16:31:10;;;;;;;2.40;1.30;;;23.00;51.30;;;;;;5026372;28;20420;-84
2022/09/23 16:33:49;;;;;;;3.23;1.33;;;23.10;51.40;;;;;;5026567;28;20422;-84
2022/09/23 16:36:30;;;;;;;2.20;1.20;;;23.00;51.30;;;;;;5025912;28;20419;-84
2022/09/23 16:38:59;;;;;;;2.27;1.30;;;23.00;51.30;;;;;;5009229;28;20419;-84
2022/09/23 16:41:35;;;;;;;1.77;1.47;;;23.00;51.30;;;;;;5026703;28;20454;-85
2022/09/23 16:44:09;;;;;;;4.77;1.90;;;23.00;51.30;;;;;;5025639;28;20879;-84
2022/09/23 16:47:04;;;;;;;4.53;2.10;;;23.00;51.40;;;;;;5026407;28;20419;-84
2022/09/23 16:50:05;;;;;;;1.63;1.37;;;23.00;51.30;;;;;;5025885;28;20411;-83
2022/09/23 16:53:04;;;;;;;3.83;1.60;;;23.00;51.40;;;;;;5026397;28;20414;-82
2022/09/23 17:05:32;;;;;;;4.50;2.20;;;22.90;51.40;;;;;;5028310;28;20455;-82
2022/09/23 17:08:09;;;;;;;3.20;2.53;;;22.90;51.50;;;;;;5074236;28;20396;-83